Time;durP1;ratioP1;P1;durP2;ratioP2;P2;SDS_P1;SDS_P2;PMS_P1;PMS_P2;Temp;Humidity;BMP_temperature;BMP_pressure;BME280_temperature;BME280_humidity;BME280_pressure;Samples;Min_cycle;Max_cycle;Signal;HPM_P1;HPM_P2
2022/11/15 00:01:01;;;;;;;22.00;13.00;;;;;;;4.35;100.00;100476.78;5004293;28;20786;-77
2022/11/15 00:03:28;;;;;;;18.83;12.43;;;;;;;4.33;100.00;100481.06;5024984;28;20091;-75
2022/11/15 00:05:55;;;;;;;23.17;13.23;;;;;;;4.38;100.00;100475.13;5027049;28;20665;-76
2022/11/15 00:08:22;;;;;;;18.75;12.27;;;;;;;4.37;100.00;100480.25;5036827;28;20107;-82
2022/11/15 00:11:00;;;;;;;23.50;12.88;;;;;;;4.42;100.00;100482.09;5014847;28;20152;-76
2022/11/15 00:13:27;;;;;;;19.70;10.77;;;;;;;4.49;100.00;100479.59;5050957;28;20047;-76
2022/11/15 00:15:59;;;;;;;19.60;12.30;;;;;;;4.51;100.00;100486.53;5033094;28;20387;-76
2022/11/15 00:18:25;;;;;;;20.83;12.85;;;;;;;4.62;100.00;100486.66;5028433;28;20057;-77
2022/11/15 00:20:52;;;;;;;20.48;12.48;;;;;;;4.65;100.00;100494.47;5036217;28;20185;-80
2022/11/15 00:23:18;;;;;;;19.55;11.98;;;;;;;4.70;100.00;100487.63;5029410;28;20053;-76
2022/11/15 00:25:45;;;;;;;18.10;12.13;;;;;;;4.80;100.00;100478.25;5030272;28;20503;-75
2022/11/15 00:28:11;;;;;;;20.63;11.90;;;;;;;4.81;100.00;100480.00;5030635;28;20480;-76
2022/11/15 00:30:38;;;;;;;15.52;11.23;;;;;;;4.91;100.00;100473.16;5032819;28;20044;-79
2022/11/15 00:33:06;;;;;;;18.40;10.98;;;;;;;5.01;100.00;100472.41;5028971;28;20045;-86
2022/11/15 00:35:34;;;;;;;14.77;10.00;;;;;;;5.03;100.00;100483.69;5031014;28;20152;-79
2022/11/15 00:38:01;;;;;;;17.60;11.20;;;;;;;4.97;100.00;100484.47;5015670;28;20041;-76
2022/11/15 00:40:30;;;;;;;17.30;10.48;;;;;;;4.91;100.00;100486.13;5038335;28;20368;-76
2022/11/15 00:43:06;;;;;;;17.42;10.30;;;;;;;4.88;100.00;100484.38;5037459;28;20047;-74
2022/11/15 00:45:32;;;;;;;15.27;9.95;;;;;;;4.94;100.00;100481.88;5031180;28;20044;-78
2022/11/15 00:47:59;;;;;;;14.45;9.10;;;;;;;5.10;100.00;100480.28;5031948;28;20049;-78
2022/11/15 00:50:25;;;;;;;13.07;9.35;;;;;;;5.30;100.00;100477.91;5014867;28;20084;-80
2022/11/15 00:52:52;;;;;;;12.10;9.27;;;;;;;5.48;100.00;100473.75;5033346;28;20943;-76
2022/11/15 00:55:19;;;;;;;13.32;8.90;;;;;;;5.62;100.00;100471.28;5041413;28;20393;-77
2022/11/15 00:57:47;;;;;;;13.13;9.55;;;;;;;5.73;100.00;100468.75;5031294;28;20057;-78
2022/11/15 01:00:14;;;;;;;14.55;10.07;;;;;;;5.86;100.00;100470.59;5025093;28;20048;-78
2022/11/15 01:02:40;;;;;;;14.80;10.07;;;;;;;5.99;100.00;100462.94;5026033;28;20131;-77
2022/11/15 01:05:08;;;;;;;12.65;8.52;;;;;;;6.10;100.00;100463.84;5031992;28;20547;-78
2022/11/15 01:07:34;;;;;;;12.13;8.63;;;;;;;6.21;100.00;100450.94;5040138;28;20041;-77
2022/11/15 01:10:01;;;;;;;13.00;7.63;;;;;;;6.27;100.00;100457.03;5029089;28;20129;-79
2022/11/15 01:12:27;;;;;;;11.88;7.97;;;;;;;6.36;100.00;100455.34;5027947;28;20720;-85
2022/11/15 01:14:55;;;;;;;14.23;8.80;;;;;;;6.32;100.00;100445.78;5026380;28;20420;-85
2022/11/15 01:17:21;;;;;;;10.35;7.75;;;;;;;6.23;100.00;100444.00;5024504;28;20048;-76
2022/11/15 01:19:48;;;;;;;11.63;8.80;;;;;;;6.25;100.00;100444.88;5025213;28;20049;-82
2022/11/15 01:22:14;;;;;;;12.88;8.60;;;;;;;6.28;100.00;100443.19;5041198;28;20057;-76
2022/11/15 01:24:41;;;;;;;10.95;8.52;;;;;;;6.37;100.00;100439.75;5004273;28;20041;-79
2022/11/15 01:27:07;;;;;;;9.18;7.35;;;;;;;6.44;100.00;100425.03;5042606;28;20045;-76
2022/11/15 01:29:34;;;;;;;10.68;7.15;;;;;;;6.55;100.00;100432.91;5026292;28;20041;-82
2022/11/15 01:32:01;;;;;;;8.30;6.95;;;;;;;6.64;100.00;100434.66;5025558;28;20049;-76
2022/11/15 01:34:30;;;;;;;10.70;7.53;;;;;;;6.72;100.00;100425.16;5024315;28;20037;-79
2022/11/15 01:36:56;;;;;;;14.05;8.35;;;;;;;6.68;100.00;100408.66;5025716;28;20699;-76
2022/11/15 01:39:23;;;;;;;8.65;6.22;;;;;;;6.56;100.00;100419.03;5029068;28;20037;-77
2022/11/15 01:41:49;;;;;;;6.63;5.93;;;;;;;6.39;100.00;100411.16;5028644;28;20049;-75
2022/11/15 01:44:34;;;;;;;6.32;5.57;;;;;;;6.21;100.00;100401.56;5021873;28;20049;-79
2022/11/15 01:47:07;;;;;;;9.65;6.70;;;;;;;6.09;100.00;100404.97;5029801;28;20130;-76
2022/11/15 01:49:36;;;;;;;12.55;7.40;;;;;;;5.93;100.00;100396.16;5025571;28;20048;-80
2022/11/15 01:52:06;;;;;;;11.45;7.72;;;;;;;5.85;100.00;100403.03;5043268;28;20045;-76
2022/11/15 01:54:33;;;;;;;14.75;8.85;;;;;;;5.77;100.00;100400.38;5010863;28;20045;-76
2022/11/15 01:57:10;;;;;;;9.88;7.15;;;;;;;5.72;100.00;100396.88;5032969;28;20049;-76
2022/11/15 01:59:41;;;;;;;12.48;7.60;;;;;;;5.66;100.00;100397.72;5020000;28;20061;-78
2022/11/15 02:02:08;;;;;;;8.48;6.25;;;;;;;5.75;100.00;100405.59;5043582;28;20045;-78
2022/11/15 02:04:44;;;;;;;9.65;6.75;;;;;;;5.89;100.00;100404.78;5023938;28;20045;-78
2022/11/15 02:07:16;;;;;;;11.95;7.78;;;;;;;6.11;100.00;100408.41;5046025;28;20050;-79
2022/11/15 02:09:44;;;;;;;12.05;8.52;;;;;;;6.30;100.00;100396.38;5030302;28;20152;-76
2022/11/15 02:12:16;;;;;;;14.68;7.72;;;;;;;6.42;100.00;100392.97;5045999;28;20376;-74
2022/11/15 02:14:49;;;;;;;12.38;7.97;;;;;;;6.51;100.00;100389.53;5033012;28;20043;-76
2022/11/15 02:17:45;;;;;;;9.82;6.97;;;;;;;6.64;100.00;100390.44;5038405;28;20053;-74
2022/11/15 02:20:42;;;;;;;12.38;7.47;;;;;;;6.78;100.00;100393.97;5027257;28;20041;-76
2022/11/15 02:23:54;;;;;;;9.00;6.40;;;;;;;6.79;100.00;100387.88;5030322;28;20128;-74
2022/11/15 02:26:59;;;;;;;11.07;7.53;;;;;;;6.66;100.00;100380.91;5033541;28;20140;-75
2022/11/15 02:30:28;;;;;;;10.73;7.07;;;;;;;6.49;100.00;100376.50;5038843;28;20056;-76
2022/11/15 02:33:07;;;;;;;11.23;7.88;;;;;;;6.40;100.00;100379.09;4967649;28;20144;-79
2022/11/15 02:35:56;;;;;;;9.73;6.78;;;;;;;6.35;100.00;100373.88;5044968;28;20476;-79
2022/11/15 02:38:45;;;;;;;11.95;8.35;;;;;;;6.36;100.00;100366.94;5035013;28;20047;-79
2022/11/15 02:41:18;;;;;;;10.05;7.03;;;;;;;6.51;100.00;100364.41;5033180;28;20236;-79
2022/11/15 02:43:56;;;;;;;9.82;6.90;;;;;;;6.61;100.00;100366.16;5030244;28;20121;-76
2022/11/15 02:49:22;;;;;;;11.65;8.25;;;;;;;6.90;100.00;100360.13;5029307;28;20483;-75
2022/11/15 02:51:51;;;;;;;9.23;7.63;;;;;;;7.00;100.00;100349.75;5031084;28;20045;-76
2022/11/15 02:54:26;;;;;;;10.85;8.13;;;;;;;7.11;100.00;100348.03;5047680;28;20069;-75
2022/11/15 02:56:57;;;;;;;9.27;7.28;;;;;;;7.14;100.00;100345.41;5045066;28;20049;-77
2022/11/15 02:59:38;;;;;;;12.45;7.28;;;;;;;7.10;100.00;100344.56;5027774;28;20073;-74
2022/11/15 03:02:37;;;;;;;9.68;7.00;;;;;;;7.06;100.00;100347.16;5031635;28;20053;-74
2022/11/15 03:05:26;;;;;;;9.43;7.05;;;;;;;7.07;100.00;100349.75;5002264;28;20396;-75
2022/11/15 03:08:06;;;;;;;12.07;7.32;;;;;;;7.04;100.00;100352.34;5051925;28;20132;-74
2022/11/15 03:11:12;;;;;;;8.57;6.22;;;;;;;7.08;100.00;100346.28;5036172;28;20363;-77
2022/11/15 03:14:23;;;;;;;9.32;6.68;;;;;;;7.20;100.00;100348.03;4993725;28;20053;-75
2022/11/15 03:17:15;;;;;;;13.35;7.65;;;;;;;7.36;100.00;100340.22;5036182;28;20141;-75
2022/11/15 03:19:50;;;;;;;11.25;7.38;;;;;;;7.44;100.00;100341.94;5027380;28;20477;-75
2022/11/15 03:22:22;;;;;;;11.52;8.02;;;;;;;7.58;100.00;100336.69;5046623;28;20123;-76
2022/11/15 03:24:55;;;;;;;10.27;7.13;;;;;;;7.70;100.00;100327.13;5034387;28;20401;-75
2022/11/15 03:27:26;;;;;;;8.77;7.55;;;;;;;7.77;100.00;100334.94;5031321;28;20050;-80
2022/11/15 03:30:00;;;;;;;13.68;8.00;;;;;;;7.87;100.00;100327.94;5036402;28;20069;-76
2022/11/15 03:32:31;;;;;;;7.78;6.68;;;;;;;7.88;100.00;100324.47;5033444;28;20519;-76
2022/11/15 03:35:01;;;;;;;11.23;7.20;;;;;;;7.92;100.00;100325.31;5029196;28;20042;-76
2022/11/15 03:37:49;;;;;;;12.23;7.55;;;;;;;7.93;100.00;100321.84;5027909;28;20601;-81
2022/11/15 03:40:18;;;;;;;9.95;6.20;;;;;;;7.97;100.00;100333.13;5030111;28;20053;-79
2022/11/15 03:43:10;;;;;;;13.77;8.00;;;;;;;8.02;100.00;100336.59;5024441;28;21673;-84
2022/11/15 03:46:01;;;;;;;13.43;7.93;;;;;;;7.94;100.00;100334.00;5033634;28;20061;-77
2022/11/15 03:48:35;;;;;;;8.52;6.38;;;;;;;7.92;100.00;100331.38;5014066;28;20052;-75
2022/11/15 03:51:04;;;;;;;9.77;6.30;;;;;;;7.87;100.00;100335.75;5010355;28;20041;-76
2022/11/15 03:53:31;;;;;;;10.93;6.82;;;;;;;7.92;100.00;100330.53;5026992;28;20045;-78
2022/11/15 03:55:58;;;;;;;11.77;7.32;;;;;;;7.99;100.00;100337.47;5026336;28;20042;-76
2022/11/15 03:58:25;;;;;;;9.23;6.20;;;;;;;7.95;100.00;100336.63;5029504;28;20593;-79
2022/11/15 04:00:51;;;;;;;6.68;5.95;;;;;;;7.90;100.00;100335.75;5032869;28;20463;-77
2022/11/15 04:03:18;;;;;;;16.02;7.18;;;;;;;7.92;100.00;100338.34;5029569;28;20120;-79
2022/11/15 04:05:47;;;;;;;11.77;6.97;;;;;;;7.92;100.00;100335.75;5027027;28;20373;-76
2022/11/15 04:08:14;;;;;;;7.78;5.30;;;;;;;7.89;100.00;100330.56;5010100;28;20566;-79
2022/11/15 04:10:40;;;;;;;8.52;5.80;;;;;;;7.85;100.00;100334.91;5008365;28;20054;-75
2022/11/15 04:13:07;;;;;;;7.13;5.15;;;;;;;7.83;100.00;100323.59;5012351;28;20071;-77
2022/11/15 04:15:33;;;;;;;7.05;5.05;;;;;;;7.87;100.00;100322.72;5028165;28;20145;-79
2022/11/15 04:18:00;;;;;;;10.48;5.97;;;;;;;7.91;100.00;100324.47;5026939;28;20486;-78
2022/11/15 04:26:09;;;;;;;9.02;5.50;;;;;;;7.97;100.00;100320.09;5032126;28;20057;-77
2022/11/15 04:29:33;;;;;;;7.25;4.70;;;;;;;7.93;100.00;100314.03;5024651;28;20495;-76
2022/11/15 04:31:23;;;;;;;8.05;5.30;;;;;;;7.87;100.00;100322.72;5025603;28;20065;-76
2022/11/15 04:33:50;;;;;;;5.95;4.85;;;;;;;7.85;100.00;100319.28;5021615;28;20052;-79
2022/11/15 04:39:00;;;;;;;6.53;4.55;;;;;;;7.92;100.00;100322.72;5028197;28;20044;-77
2022/11/15 04:41:27;;;;;;;7.55;4.90;;;;;;;7.94;100.00;100328.81;5044610;28;20037;-78
2022/11/15 04:43:53;;;;;;;6.05;4.10;;;;;;;7.95;100.00;100334.00;5025678;28;20052;-82
2022/11/15 04:46:20;;;;;;;8.35;4.60;;;;;;;8.07;100.00;100327.00;5028641;28;20038;-77
2022/11/15 04:48:47;;;;;;;6.40;4.53;;;;;;;8.11;100.00;100337.41;5024863;28;20037;-78
2022/11/15 04:51:16;;;;;;;5.07;4.47;;;;;;;8.13;100.00;100334.81;5042527;28;20068;-79
2022/11/15 04:53:46;;;;;;;6.30;4.32;;;;;;;8.22;100.00;100333.91;5029399;28;20052;-81
2022/11/15 04:56:15;;;;;;;5.10;4.60;;;;;;;8.24;100.00;100342.59;5030321;28;20203;-78
2022/11/15 04:58:42;;;;;;;4.35;3.95;;;;;;;8.29;100.00;100343.41;5013570;28;20096;-77
2022/11/15 05:01:15;;;;;;;4.57;4.18;;;;;;;8.41;100.00;100338.16;5028097;28;20045;-75
2022/11/15 05:06:27;;;;;;;7.70;4.18;;;;;;;8.60;100.00;100346.78;5033225;28;20033;-75
2022/11/15 05:08:58;;;;;;;7.25;4.30;;;;;;;8.74;100.00;100346.69;5029855;28;20555;-79
2022/11/15 05:11:27;;;;;;;8.43;4.57;;;;;;;8.85;100.00;100343.13;5030589;28;20925;-78
2022/11/15 05:13:54;;;;;;;5.20;4.57;;;;;;;8.94;100.00;100343.06;5025367;28;20180;-76
2022/11/15 05:16:21;;;;;;;8.27;4.85;;;;;;;9.02;100.00;100343.91;5027752;28;20804;-75
2022/11/15 05:18:56;;;;;;;4.50;3.63;;;;;;;9.10;100.00;100346.47;5009627;28;20051;-85
2022/11/15 05:21:23;;;;;;;4.43;4.00;;;;;;;9.17;100.00;100344.66;5004551;28;21439;-82
2022/11/15 05:23:50;;;;;;;5.43;4.05;;;;;;;9.19;100.00;100346.38;5018473;28;20057;-77
2022/11/15 05:26:24;;;;;;;4.68;4.28;;;;;;;9.21;100.00;100352.44;5025564;28;20060;-78
2022/11/15 05:28:59;;;;;;;15.27;8.38;;;;;;;9.23;100.00;100355.03;5039987;28;20065;-80
2022/11/15 05:31:30;;;;;;;8.32;4.43;;;;;;;9.21;100.00;100352.44;5042844;28;20041;-75
2022/11/15 05:33:57;;;;;;;5.68;4.05;;;;;;;9.24;100.00;100348.94;5046518;28;20046;-83
2022/11/15 05:36:42;;;;;;;6.50;4.55;;;;;;;9.21;100.00;100355.06;5032284;28;20109;-77
2022/11/15 05:39:09;;;;;;;8.65;4.22;;;;;;;9.14;100.00;100349.88;5025448;28;20065;-82
2022/11/15 05:41:54;;;;;;;7.07;4.68;;;;;;;9.10;100.00;100357.75;5031716;28;20051;-77
2022/11/15 05:44:25;;;;;;;5.82;4.05;;;;;;;9.10;100.00;100349.06;5032689;28;20048;-75
2022/11/15 05:46:55;;;;;;;5.30;4.68;;;;;;;9.11;100.00;100350.78;5027621;28;20123;-76
2022/11/15 05:49:26;;;;;;;8.35;5.38;;;;;;;9.10;100.00;100347.31;5027239;28;20083;-80
2022/11/15 05:51:54;;;;;;;7.63;4.53;;;;;;;9.12;100.00;100344.69;5031869;28;20049;-77
2022/11/15 05:54:24;;;;;;;4.32;3.35;;;;;;;9.10;100.00;100339.47;5040764;28;20046;-76
2022/11/15 05:56:50;;;;;;;4.00;2.92;;;;;;;9.03;100.00;100342.16;5034650;28;20042;-80
2022/11/15 05:59:18;;;;;;;4.78;3.33;;;;;;;8.93;100.00;100349.19;5028304;28;20770;-77
2022/11/15 06:01:44;;;;;;;5.75;4.00;;;;;;;8.86;100.00;100344.88;5012176;28;20048;-75
2022/11/15 06:04:11;;;;;;;6.72;4.05;;;;;;;8.76;100.00;100347.56;5014924;28;20157;-75
2022/11/15 06:06:37;;;;;;;4.60;3.72;;;;;;;8.75;100.00;100350.19;5026388;28;20042;-78
2022/11/15 06:09:04;;;;;;;5.22;3.80;;;;;;;8.76;100.00;100347.56;5028702;28;20051;-78
2022/11/15 06:11:30;;;;;;;10.00;3.80;;;;;;;8.86;100.00;100344.88;5044305;28;20042;-76
2022/11/15 06:13:58;;;;;;;4.75;3.53;;;;;;;8.98;100.00;100352.59;5025878;28;20555;-79
2022/11/15 06:16:27;;;;;;;6.05;4.72;;;;;;;9.12;100.00;100351.66;5046766;28;20508;-77
2022/11/15 06:18:53;;;;;;;5.20;4.13;;;;;;;9.18;100.00;100349.00;5037195;28;20517;-77
2022/11/15 06:21:21;;;;;;;7.80;4.70;;;;;;;9.26;100.00;100355.03;5031378;28;20037;-75
2022/11/15 06:23:48;;;;;;;7.68;4.32;;;;;;;9.25;100.00;100354.13;5024720;28;20069;-77
2022/11/15 06:26:15;;;;;;;6.65;4.55;;;;;;;9.29;100.00;100351.53;5027605;28;20052;-76
2022/11/15 06:28:42;;;;;;;6.05;3.60;;;;;;;9.31;100.00;100352.34;5044344;28;20041;-75
2022/11/15 06:31:11;;;;;;;15.48;4.22;;;;;;;9.30;100.00;100348.03;5033157;28;20048;-75
2022/11/15 06:33:39;;;;;;;5.47;4.40;;;;;;;9.24;100.00;100341.97;5049602;28;20076;-82
2022/11/15 06:36:10;;;;;;;9.90;4.47;;;;;;;9.15;100.00;100347.28;5040259;28;20029;-82
2022/11/15 06:38:37;;;;;;;6.25;4.07;;;;;;;9.05;100.00;100346.47;5035232;28;20049;-83
2022/11/15 06:41:07;;;;;;;5.28;4.30;;;;;;;8.97;100.00;100347.41;5035724;28;20058;-79
2022/11/15 06:43:35;;;;;;;6.68;4.22;;;;;;;8.91;100.00;100345.72;5035275;28;20046;-80
2022/11/15 06:46:03;;;;;;;7.00;4.07;;;;;;;8.77;100.00;100351.91;5052594;28;20053;-78
2022/11/15 06:48:31;;;;;;;5.63;3.60;;;;;;;8.69;100.00;100348.44;5033438;28;20093;-78
2022/11/15 06:51:00;;;;;;;6.68;4.63;;;;;;;8.64;100.00;100355.44;5026738;28;20109;-77
2022/11/15 06:53:28;;;;;;;7.00;4.93;;;;;;;8.61;100.00;100358.09;5052233;28;20029;-81
2022/11/15 06:55:59;;;;;;;5.05;4.15;;;;;;;8.61;100.00;100363.28;5044853;28;20089;-82
2022/11/15 06:58:25;;;;;;;8.25;5.15;;;;;;;8.56;100.00;100360.69;5044298;28;20105;-76
2022/11/15 07:00:52;;;;;;;6.03;4.70;;;;;;;8.55;100.00;100363.31;5048737;28;20068;-85
2022/11/15 07:03:18;;;;;;;6.88;4.32;;;;;;;8.62;100.00;100359.81;5046399;28;20072;-84
2022/11/15 07:05:56;;;;;;;10.77;4.80;;;;;;;8.67;100.00;100362.38;5029264;28;20041;-76
2022/11/15 07:08:24;;;;;;;6.60;4.38;;;;;;;8.68;100.00;100356.31;5027383;28;20156;-78
2022/11/15 07:10:51;;;;;;;6.97;4.65;;;;;;;8.70;100.00;100358.03;5032348;28;20101;-77
2022/11/15 07:13:18;;;;;;;6.07;4.28;;;;;;;8.64;100.00;100362.41;5030728;28;20095;-77
2022/11/15 07:15:44;;;;;;;7.65;4.53;;;;;;;8.63;100.00;100365.91;5017363;28;20203;-76
2022/11/15 07:18:11;;;;;;;6.88;5.05;;;;;;;8.67;100.00;100368.50;5022516;28;20130;-77
2022/11/15 07:20:39;;;;;;;6.40;4.85;;;;;;;8.69;100.00;100364.13;5026136;28;20740;-78
2022/11/15 07:23:06;;;;;;;6.22;4.60;;;;;;;8.72;100.00;100371.06;5041172;28;20057;-78
2022/11/15 07:25:33;;;;;;;5.35;4.68;;;;;;;8.75;100.00;100358.00;5030434;28;20049;-79
2022/11/15 07:28:00;;;;;;;4.63;4.22;;;;;;;8.81;100.00;100365.78;5025738;28;20057;-75
2022/11/15 07:30:27;;;;;;;8.90;5.50;;;;;;;8.84;100.00;100367.50;5031037;28;20045;-76
2022/11/15 07:32:55;;;;;;;5.22;4.35;;;;;;;8.83;100.00;100369.25;5028143;28;20057;-78
2022/11/15 07:35:21;;;;;;;5.80;3.95;;;;;;;8.82;100.00;100375.34;5027618;28;20051;-76
2022/11/15 07:38:02;;;;;;;9.40;5.05;;;;;;;8.76;100.00;100378.88;5033727;28;20052;-77
2022/11/15 07:40:32;;;;;;;8.40;5.88;;;;;;;8.72;100.00;100379.78;5028513;28;20049;-76
2022/11/15 07:43:04;;;;;;;8.45;5.30;;;;;;;8.74;100.00;100375.41;5035461;28;20044;-77
2022/11/15 07:45:33;;;;;;;7.78;4.82;;;;;;;8.72;100.00;100374.56;5029727;28;20472;-76
2022/11/15 07:48:00;;;;;;;8.45;4.25;;;;;;;8.68;100.00;100371.94;5028998;28;20212;-77
2022/11/15 07:50:29;;;;;;;6.80;5.05;;;;;;;8.63;100.00;100369.38;5025521;28;20121;-77
2022/11/15 07:53:00;;;;;;;7.93;4.60;;;;;;;8.59;100.00;100372.88;5014188;28;20444;-78
2022/11/15 07:55:29;;;;;;;8.57;5.00;;;;;;;8.54;100.00;100375.50;5030371;28;20052;-82
2022/11/15 07:58:08;;;;;;;5.38;4.22;;;;;;;8.53;100.00;100371.16;5022867;28;20104;-78
2022/11/15 08:00:35;;;;;;;12.60;5.00;;;;;;;8.56;100.00;100371.13;5027361;28;20052;-77
2022/11/15 08:03:13;;;;;;;6.28;4.20;;;;;;;8.54;100.00;100372.03;5021773;28;20041;-76
2022/11/15 08:05:42;;;;;;;6.60;3.78;;;;;;;8.53;100.00;100363.34;5028702;28;20042;-76
2022/11/15 08:08:11;;;;;;;6.35;4.45;;;;;;;8.50;100.00;100360.75;5014954;28;20071;-75
2022/11/15 08:10:38;;;;;;;7.43;4.15;;;;;;;8.42;100.00;100367.69;5028254;28;20500;-77
2022/11/15 08:13:12;;;;;;;7.82;4.63;;;;;;;8.48;100.00;100370.31;5039040;28;20041;-79
2022/11/15 08:15:38;;;;;;;7.50;4.40;;;;;;;8.58;100.00;100366.78;5029966;28;20053;-75
2022/11/15 08:18:11;;;;;;;6.82;3.83;;;;;;;8.64;100.00;100359.81;5035192;28;20033;-76
2022/11/15 08:20:38;;;;;;;5.68;4.30;;;;;;;8.71;100.00;100366.75;5029351;28;20041;-76
2022/11/15 08:23:06;;;;;;;10.43;4.93;;;;;;;8.82;100.00;100364.06;5017056;28;20057;-80
2022/11/15 08:25:34;;;;;;;6.25;4.05;;;;;;;8.95;100.00;100373.53;5029718;28;20045;-78
2022/11/15 08:28:05;;;;;;;6.30;4.43;;;;;;;9.17;100.00;100363.78;5024968;28;20045;-76
2022/11/15 08:30:37;;;;;;;10.65;4.90;;;;;;;9.42;100.00;100366.19;5015699;28;20046;-77
2022/11/15 08:33:03;;;;;;;7.63;5.07;;;;;;;9.66;100.00;100362.50;5032454;28;20057;-76
2022/11/15 08:35:30;;;;;;;6.57;4.55;;;;;;;9.76;100.00;100364.16;5032078;28;20045;-80
2022/11/15 08:37:56;;;;;;;6.35;4.18;;;;;;;9.79;100.00;100364.97;5005139;28;20071;-79
2022/11/15 08:40:23;;;;;;;5.95;4.78;;;;;;;9.75;100.00;100356.28;5040050;28;20121;-78
2022/11/15 08:42:49;;;;;;;9.23;5.80;;;;;;;9.74;100.00;100367.66;5046307;28;20485;-77
2022/11/15 08:45:16;;;;;;;6.40;4.18;;;;;;;9.75;100.00;100365.03;5039982;28;20128;-77
2022/11/15 08:47:43;;;;;;;9.20;4.57;;;;;;;9.77;100.00;100365.00;5037586;28;20129;-77
2022/11/15 08:50:09;;;;;;;6.13;4.60;;;;;;;9.77;100.00;100358.00;5050270;28;20532;-77
2022/11/15 08:52:36;;;;;;;11.93;4.90;;;;;;;9.79;100.00;100357.13;5044781;28;20045;-79
2022/11/15 08:55:04;;;;;;;7.35;5.10;;;;;;;9.82;100.00;100352.75;5032613;28;20041;-79
2022/11/15 08:57:31;;;;;;;7.20;4.43;;;;;;;9.87;100.00;100358.78;5029413;28;20045;-76
2022/11/15 08:59:58;;;;;;;13.80;6.03;;;;;;;9.93;100.00;100361.34;5016297;28;20140;-76
2022/11/15 09:02:25;;;;;;;8.32;4.97;;;;;;;10.02;100.00;100359.50;5015938;28;20059;-80
2022/11/15 09:04:51;;;;;;;4.65;4.15;;;;;;;10.06;100.00;100355.97;5033437;28;20052;-76
2022/11/15 09:07:18;;;;;;;7.20;4.43;;;;;;;10.11;100.00;100354.16;5044467;28;20053;-76
2022/11/15 09:09:45;;;;;;;8.98;4.53;;;;;;;10.19;100.00;100354.06;5039165;28;20057;-75
2022/11/15 09:12:12;;;;;;;5.13;3.00;;;;;;;10.22;100.00;100352.28;5038663;28;20045;-77
2022/11/15 09:14:38;;;;;;;6.63;3.92;;;;;;;10.24;100.00;100352.28;5032243;28;20042;-76
2022/11/15 09:17:09;;;;;;;3.92;3.08;;;;;;;10.26;100.00;100353.97;5030224;28;20072;-76
2022/11/15 09:19:36;;;;;;;4.95;3.45;;;;;;;10.32;100.00;100355.66;5042847;28;20052;-76
2022/11/15 09:22:06;;;;;;;4.85;3.78;;;;;;;10.38;100.00;100347.75;5036247;28;20055;-78
2022/11/15 09:24:33;;;;;;;5.95;4.05;;;;;;;10.43;100.00;100345.94;5016901;28;20119;-78
2022/11/15 09:27:02;;;;;;;5.32;3.25;;;;;;;10.48;100.00;100343.28;5004096;28;20033;-76
2022/11/15 09:29:28;;;;;;;3.22;3.03;;;;;;;10.52;100.00;100329.25;5000043;28;20540;-75
2022/11/15 09:31:55;;;;;;;5.10;3.70;;;;;;;10.57;100.00;100337.03;4997312;28;20362;-76
2022/11/15 09:34:22;;;;;;;14.13;3.85;;;;;;;10.64;100.00;100333.47;5017654;28;20117;-76
2022/11/15 09:36:48;;;;;;;6.07;3.30;;;;;;;10.73;99.75;100343.78;4997383;28;20069;-76
2022/11/15 09:39:15;;;;;;;4.97;3.72;;;;;;;10.76;99.03;100341.13;5013606;28;20046;-75
2022/11/15 09:42:22;;;;;;;4.63;3.60;;;;;;;10.75;99.23;100343.75;5007200;28;20049;-76
2022/11/15 09:45:14;;;;;;;7.93;3.05;;;;;;;10.75;99.09;100352.50;4998526;28;20077;-77
2022/11/15 09:48:21;;;;;;;2.92;2.55;;;;;;;10.74;98.60;100345.53;5025216;28;20680;-77
2022/11/15 09:50:53;;;;;;;4.38;3.17;;;;;;;10.71;99.33;100357.78;4978266;28;20041;-78
2022/11/15 09:53:42;;;;;;;3.28;2.97;;;;;;;10.73;99.17;100356.88;4993686;28;20122;-79
2022/11/15 09:56:21;;;;;;;3.65;3.10;;;;;;;10.78;99.04;100355.94;5007659;28;20034;-76
2022/11/15 09:59:20;;;;;;;3.08;2.85;;;;;;;10.80;98.70;100346.31;5003866;28;20056;-76
2022/11/15 10:02:44;;;;;;;6.93;4.50;;;;;;;10.91;97.71;100344.38;5004261;28;20042;-76
2022/11/15 10:05:15;;;;;;;6.18;2.85;;;;;;;11.01;97.22;100345.13;4979535;28;20057;-76
2022/11/15 10:07:56;;;;;;;4.97;3.50;;;;;;;11.07;97.00;100343.28;4990596;28;20756;-77
2022/11/15 10:10:42;;;;;;;6.68;3.30;;;;;;;11.15;96.55;100347.53;4997883;28;20957;-77
2022/11/15 10:13:21;;;;;;;4.10;3.35;;;;;;;11.27;95.21;100338.59;5011927;28;20051;-76
2022/11/15 10:15:48;;;;;;;3.60;3.30;;;;;;;11.31;95.09;100335.03;5018180;28;20045;-77
2022/11/15 10:18:29;;;;;;;6.85;3.50;;;;;;;11.31;94.97;100332.41;4996430;28;20049;-76
2022/11/15 10:21:21;;;;;;;4.00;3.60;;;;;;;11.35;94.81;100334.94;4973813;28;20132;-79
2022/11/15 10:23:49;;;;;;;4.10;3.08;;;;;;;11.42;94.38;100336.56;5002125;28;20412;-77
2022/11/15 10:26:18;;;;;;;4.22;3.42;;;;;;;11.50;93.96;100336.44;5025785;28;20049;-77
2022/11/15 10:28:47;;;;;;;4.53;3.60;;;;;;;11.64;92.95;100333.59;5025042;28;20518;-76
2022/11/15 10:31:27;;;;;;;5.32;3.25;;;;;;;11.69;92.16;100330.84;5012602;28;20060;-76
2022/11/15 10:34:18;;;;;;;4.13;3.00;;;;;;;11.71;92.40;100331.69;5011534;28;20049;-75
2022/11/15 10:36:47;;;;;;;3.53;3.22;;;;;;;11.77;92.07;100328.09;5009817;28;20083;-77
2022/11/15 10:39:15;;;;;;;2.70;2.38;;;;;;;11.83;91.63;100323.59;5015882;28;20277;-76
2022/11/15 10:41:43;;;;;;;5.57;3.05;;;;;;;11.92;89.69;100317.31;5013171;28;20121;-78
2022/11/15 10:44:30;;;;;;;21.55;5.78;;;;;;;11.96;90.07;100315.53;5017476;28;20049;-76
2022/11/15 10:46:57;;;;;;;37.33;7.85;;;;;;;11.96;90.31;100311.13;5005097;28;20465;-76
2022/11/15 10:49:28;;;;;;;25.95;6.93;;;;;;;11.98;90.36;100303.22;5034138;28;20077;-77
2022/11/15 10:52:02;;;;;;;17.35;4.30;;;;;;;12.06;89.11;100309.19;5034764;28;20053;-75
2022/11/15 10:54:54;;;;;;;15.48;4.57;;;;;;;12.13;88.20;100302.91;5029003;28;20059;-79
2022/11/15 10:57:27;;;;;;;6.22;3.22;;;;;;;12.21;87.93;100297.50;5017301;28;20112;-76
2022/11/15 11:00:01;;;;;;;5.50;3.20;;;;;;;12.23;87.76;100299.19;5022854;28;20095;-77
2022/11/15 11:02:43;;;;;;;2.35;2.15;;;;;;;12.28;86.87;100304.34;4998654;28;20055;-79
2022/11/15 11:05:31;;;;;;;3.50;3.15;;;;;;;12.33;86.49;100299.88;5015553;28;20479;-76
2022/11/15 11:08:06;;;;;;;2.78;2.50;;;;;;;12.41;86.45;100294.44;5025156;28;20468;-76
2022/11/15 11:10:35;;;;;;;3.20;2.20;;;;;;;12.54;84.09;100289.75;5010852;28;20046;-75
2022/11/15 11:13:21;;;;;;;4.45;2.55;;;;;;;12.68;83.62;100292.94;5029675;28;20531;-80
2022/11/15 11:16:14;;;;;;;3.67;2.45;;;;;;;12.81;83.08;100284.78;5016414;28;20466;-76
2022/11/15 11:19:09;;;;;;;3.88;2.55;;;;;;;12.74;82.19;100277.03;5004037;28;20049;-75
2022/11/15 11:21:50;;;;;;;3.40;2.33;;;;;;;12.66;82.76;100279.00;5033610;28;20037;-78
2022/11/15 11:24:35;;;;;;;3.15;2.35;;;;;;;12.60;83.09;100278.28;5032626;28;20061;-77
2022/11/15 11:27:23;;;;;;;3.25;2.95;;;;;;;12.54;83.22;100267.03;5020490;28;20499;-76
2022/11/15 11:30:33;;;;;;;2.53;2.10;;;;;;;12.53;83.21;100273.16;5006455;28;20068;-76
2022/11/15 11:33:17;;;;;;;2.60;2.10;;;;;;;12.54;83.46;100269.66;4985449;28;20128;-77
2022/11/15 11:36:17;;;;;;;3.50;2.15;;;;;;;12.54;83.58;100267.03;5024679;28;20041;-77
2022/11/15 11:39:08;;;;;;;2.50;2.25;;;;;;;12.56;83.29;100251.22;5026652;28;20059;-75
2022/11/15 11:42:19;;;;;;;6.00;2.67;;;;;;;12.63;82.75;100268.53;5025769;28;20071;-76
2022/11/15 11:45:16;;;;;;;2.40;2.00;;;;;;;12.68;82.54;100264.03;5003924;28;20051;-76
2022/11/15 11:48:07;;;;;;;7.82;2.63;;;;;;;12.72;82.50;100263.09;5009621;28;20037;-77
2022/11/15 11:50:38;;;;;;;3.85;2.58;;;;;;;12.73;82.67;100264.81;5028732;28;20487;-77
2022/11/15 11:53:38;;;;;;;2.90;2.45;;;;;;;12.76;81.97;100245.47;5011782;28;20056;-79
2022/11/15 11:56:37;;;;;;;2.60;2.00;;;;;;;12.80;81.51;100252.41;5016103;28;20053;-76
2022/11/15 11:59:35;;;;;;;2.28;2.08;;;;;;;12.84;81.80;100251.44;5030445;28;20054;-76
2022/11/15 12:02:27;;;;;;;4.25;3.17;;;;;;;12.90;81.23;100250.41;5001613;28;20053;-77
2022/11/15 12:05:04;;;;;;;2.53;2.35;;;;;;;12.93;81.65;100245.06;5037797;28;20045;-78